createdAt,value
2023-07-16T00:00:57.408Z,81.63
2023-07-16T00:05:59.700Z,80.95
2023-07-16T00:11:01.992Z,81.24
2023-07-16T00:16:04.524Z,81.80
2023-07-16T00:21:06.815Z,82.02
2023-07-16T00:26:09.106Z,82.75
2023-07-16T00:31:12.064Z,84.00
2023-07-16T00:36:14.672Z,81.81
2023-07-16T00:41:17.339Z,82.28
2023-07-16T00:46:19.863Z,82.58
2023-07-16T00:51:23.889Z,82.63
2023-07-16T00:56:26.909Z,82.49
2023-07-16T01:01:29.512Z,82.47
2023-07-16T01:06:41.055Z,82.54
2023-07-16T01:11:45.108Z,83.02
2023-07-16T01:16:47.588Z,83.24
2023-07-16T01:21:52.782Z,81.67
2023-07-16T01:27:16.012Z,80.76
2023-07-16T01:32:19.261Z,80.21
2023-07-16T01:37:21.923Z,79.39
2023-07-16T01:42:24.274Z,80.24
2023-07-16T01:48:00.268Z,80.23
2023-07-16T01:53:02.636Z,81.04
2023-07-16T01:58:06.662Z,79.36
2023-07-16T02:03:09.341Z,79.86
2023-07-16T02:08:12.023Z,79.30
2023-07-16T02:13:14.389Z,78.47
2023-07-16T02:18:16.710Z,77.40
2023-07-16T02:23:19.031Z,78.51
2023-07-16T02:28:21.303Z,78.45
2023-07-16T02:33:23.678Z,80.04
2023-07-16T02:38:25.945Z,78.92
2023-07-16T02:43:28.322Z,78.98
2023-07-16T02:48:30.577Z,79.06
2023-07-16T02:53:32.768Z,78.78
2023-07-16T02:58:35.019Z,78.67
2023-07-16T03:03:37.303Z,77.69
2023-07-16T03:08:39.599Z,77.70
2023-07-16T03:13:41.880Z,77.34
2023-07-16T03:18:46.556Z,77.64
2023-07-16T03:23:48.858Z,77.65
2023-07-16T03:28:51.353Z,80.10
2023-07-16T03:33:54.139Z,81.55
2023-07-16T03:38:58.161Z,80.51
2023-07-16T03:44:00.524Z,80.60
2023-07-16T03:49:02.859Z,82.70
2023-07-16T03:54:05.177Z,83.51
2023-07-16T03:59:08.999Z,82.64
2023-07-16T04:04:11.406Z,82.40
2023-07-16T04:09:14.223Z,81.63
2023-07-16T04:14:16.486Z,81.69
2023-07-16T04:19:18.903Z,81.71
2023-07-16T04:24:21.210Z,82.43
2023-07-16T04:29:23.869Z,81.51
2023-07-16T04:34:26.195Z,80.91
2023-07-16T04:39:28.445Z,79.51
2023-07-16T04:44:30.731Z,79.69
2023-07-16T04:49:35.548Z,79.22
2023-07-16T04:54:39.099Z,79.61
2023-07-16T04:59:41.409Z,79.63
2023-07-16T05:04:45.229Z,79.24
2023-07-16T05:09:47.503Z,80.00
2023-07-16T05:14:50.877Z,79.31
2023-07-16T05:19:53.238Z,77.79
2023-07-16T05:24:55.477Z,74.97
2023-07-16T05:29:57.900Z,76.01
2023-07-16T05:35:03.126Z,77.10
2023-07-16T05:40:09.727Z,74.46
2023-07-16T05:45:12.132Z,63.97
2023-07-16T05:50:16.656Z,68.43
2023-07-16T05:55:19.479Z,68.27
2023-07-16T06:00:21.850Z,66.81
2023-07-16T06:05:25.728Z,66.99
2023-07-16T06:10:28.344Z,66.66
2023-07-16T06:15:30.633Z,68.48
2023-07-16T06:20:32.925Z,68.87
2023-07-16T06:25:35.170Z,67.94
2023-07-16T06:30:38.113Z,67.66
2023-07-16T06:35:40.433Z,68.34
2023-07-16T06:40:50.424Z,68.18
2023-07-16T06:45:52.923Z,67.15
2023-07-16T06:50:55.214Z,67.14
2023-07-16T06:55:57.463Z,67.42
2023-07-16T07:00:59.844Z,65.76
2023-07-16T07:06:05.302Z,68.91
2023-07-16T07:11:07.574Z,67.77
2023-07-16T07:16:09.777Z,66.80
2023-07-16T07:21:12.102Z,66.77
2023-07-16T07:26:14.564Z,67.88
2023-07-16T07:31:16.916Z,65.66
2023-07-16T07:36:19.623Z,67.49
2023-07-16T07:41:22.043Z,67.11
2023-07-16T07:46:24.351Z,66.52
2023-07-16T07:51:26.705Z,64.36
2023-07-16T07:56:29.077Z,65.96
2023-07-16T08:01:32.086Z,64.16
2023-07-16T08:06:34.383Z,65.15
2023-07-16T08:11:36.658Z,61.90
2023-07-16T08:16:39.003Z,64.98
2023-07-16T08:21:41.164Z,66.11
2023-07-16T08:26:43.461Z,64.25
2023-07-16T08:31:45.711Z,62.78
2023-07-16T08:36:48.006Z,63.54
2023-07-16T08:41:50.163Z,61.80
2023-07-16T08:46:53.489Z,60.56
2023-07-16T08:51:56.683Z,62.25
2023-07-16T08:56:58.990Z,59.42
2023-07-16T09:02:01.401Z,60.11
2023-07-16T09:07:03.791Z,61.09
2023-07-16T09:12:06.833Z,62.99
2023-07-16T09:17:09.482Z,62.29
2023-07-16T09:22:11.774Z,63.07
2023-07-16T09:27:15.016Z,60.16
2023-07-16T09:32:17.323Z,62.97
2023-07-16T09:37:20.891Z,60.56
2023-07-16T09:42:25.730Z,60.99
2023-07-16T09:47:28.051Z,61.76
2023-07-16T09:52:30.586Z,61.15
2023-07-16T09:57:38.490Z,60.66
2023-07-16T10:02:42.169Z,61.28
2023-07-16T10:07:52.191Z,61.25
2023-07-16T10:13:04.305Z,59.55
2023-07-16T10:18:06.626Z,59.11
2023-07-16T10:23:14.794Z,58.69
2023-07-16T10:28:17.010Z,57.15
2023-07-16T10:33:19.376Z,60.75
2023-07-16T10:38:21.724Z,57.84
2023-07-16T10:43:26.231Z,59.16
2023-07-16T10:48:28.530Z,58.98
2023-07-16T10:53:30.744Z,59.61
2023-07-16T10:58:32.943Z,58.04
2023-07-16T11:03:36.798Z,55.89
2023-07-16T11:08:39.421Z,56.79
2023-07-16T11:13:41.656Z,59.78
2023-07-16T11:18:45.199Z,58.14
2023-07-16T11:23:47.548Z,60.05
2023-07-16T11:28:52.583Z,57.86
2023-07-16T11:33:54.896Z,58.41
2023-07-16T11:38:57.232Z,56.74
2023-07-16T11:44:02.980Z,56.92
2023-07-16T11:49:05.272Z,57.41
2023-07-16T11:54:07.544Z,56.62
2023-07-16T11:59:10.940Z,56.40
2023-07-16T12:04:15.080Z,55.01
2023-07-16T12:09:17.428Z,56.71
2023-07-16T12:14:19.662Z,55.28
2023-07-16T12:19:22.100Z,54.78
2023-07-16T12:24:24.337Z,56.29
2023-07-16T12:29:26.543Z,52.67
2023-07-16T12:34:28.759Z,54.82
2023-07-16T12:39:31.093Z,55.09
2023-07-16T12:44:33.378Z,52.75
2023-07-16T12:49:36.398Z,53.30
2023-07-16T12:54:38.731Z,51.77
2023-07-16T12:59:41.037Z,52.58
2023-07-16T13:04:43.742Z,51.03
2023-07-16T13:09:46.018Z,51.21
2023-07-16T13:14:48.201Z,51.35
2023-07-16T13:19:50.343Z,49.34
2023-07-16T13:24:52.616Z,48.71
2023-07-16T13:29:54.768Z,49.09
2023-07-16T13:34:57.022Z,49.34
2023-07-16T13:39:59.294Z,49.30
2023-07-16T13:45:01.524Z,48.97
2023-07-16T13:50:03.957Z,48.68
2023-07-16T13:55:07.318Z,50.24
2023-07-16T14:00:13.325Z,48.70
2023-07-16T14:05:15.678Z,48.88
2023-07-16T14:10:17.991Z,50.29
2023-07-16T14:15:20.422Z,50.19
2023-07-16T14:20:22.663Z,47.60
2023-07-16T14:25:24.908Z,49.28
2023-07-16T14:30:27.171Z,47.79
2023-07-16T14:35:36.476Z,46.63
2023-07-16T14:40:40.363Z,46.62
2023-07-16T14:45:42.777Z,48.45
2023-07-16T14:50:45.039Z,46.88
2023-07-16T14:55:51.612Z,44.93
2023-07-16T15:00:53.889Z,46.36
2023-07-16T15:06:02.331Z,47.62
2023-07-16T15:11:05.247Z,49.67
2023-07-16T15:16:08.643Z,48.13
2023-07-16T15:21:11.191Z,49.71
2023-07-16T15:26:14.445Z,48.75
2023-07-16T15:31:17.115Z,47.89
2023-07-16T15:36:19.714Z,47.07
2023-07-16T15:41:26.398Z,48.47
2023-07-16T15:46:29.246Z,47.74
2023-07-16T15:51:31.783Z,46.48
2023-07-16T15:56:34.129Z,46.84
2023-07-16T16:01:36.445Z,48.76
2023-07-16T16:06:40.026Z,48.97
2023-07-16T16:11:42.396Z,48.20
2023-07-16T16:16:57.047Z,48.27
2023-07-16T16:22:06.976Z,49.15
2023-07-16T16:27:09.658Z,48.46
2023-07-16T16:32:11.852Z,47.18
2023-07-16T16:37:13.996Z,48.50
2023-07-16T16:42:16.342Z,49.84
2023-07-16T16:47:18.846Z,49.42
2023-07-16T16:52:21.120Z,48.61
2023-07-16T16:57:23.455Z,48.51
2023-07-16T17:02:25.902Z,49.17
2023-07-16T17:07:28.079Z,47.87
2023-07-16T17:12:30.335Z,48.79
2023-07-16T17:17:32.619Z,48.65
2023-07-16T17:22:34.932Z,50.55
2023-07-16T17:27:40.673Z,50.75
2023-07-16T17:32:42.870Z,50.72
2023-07-16T17:37:45.586Z,50.72
2023-07-16T17:42:51.463Z,50.46
2023-07-16T17:47:55.699Z,50.16
2023-07-16T17:53:03.604Z,51.36
2023-07-16T17:58:06.711Z,51.17
2023-07-16T18:03:09.547Z,51.00
2023-07-16T18:08:11.917Z,51.42
2023-07-16T18:13:14.143Z,51.64
2023-07-16T18:18:16.412Z,52.91
2023-07-16T18:23:19.297Z,53.07
2023-07-16T18:28:22.156Z,52.94
2023-07-16T18:33:24.710Z,53.87
2023-07-16T18:38:27.170Z,54.51
2023-07-16T18:43:30.316Z,53.75
2023-07-16T18:48:33.224Z,54.11
2023-07-16T18:53:36.642Z,54.54
2023-07-16T18:58:38.937Z,55.51
2023-07-16T19:03:41.242Z,54.85
2023-07-16T19:08:43.463Z,55.51
2023-07-16T19:13:45.625Z,55.32
2023-07-16T19:18:48.384Z,55.84
2023-07-16T19:23:50.571Z,55.97
2023-07-16T19:28:54.599Z,55.86
2023-07-16T19:33:56.793Z,57.28
2023-07-16T19:38:58.974Z,57.24
2023-07-16T19:44:01.559Z,58.29
2023-07-16T19:49:05.206Z,58.48
2023-07-16T19:54:08.198Z,58.12
2023-07-16T19:59:10.578Z,59.37
2023-07-16T20:04:12.881Z,61.18
2023-07-16T20:09:15.921Z,62.62
2023-07-16T20:14:18.214Z,62.28
2023-07-16T20:19:20.754Z,63.54
2023-07-16T20:24:22.949Z,62.83
2023-07-16T20:29:25.121Z,64.60
2023-07-16T20:34:28.010Z,64.65
2023-07-16T20:39:31.196Z,65.29
2023-07-16T20:44:33.366Z,64.38
2023-07-16T20:49:38.011Z,63.78
2023-07-16T20:54:40.194Z,63.07
2023-07-16T20:59:43.566Z,63.58
2023-07-16T21:04:46.142Z,63.04
2023-07-16T21:09:48.387Z,62.85
2023-07-16T21:14:50.723Z,61.65
2023-07-16T21:19:54.206Z,62.04
2023-07-16T21:24:57.826Z,62.22
2023-07-16T21:30:00.238Z,62.94
2023-07-16T21:35:02.476Z,62.77
2023-07-16T21:40:05.612Z,60.96
2023-07-16T21:45:08.878Z,61.82
2023-07-16T21:50:11.991Z,61.61
2023-07-16T21:55:14.329Z,63.13
2023-07-16T22:00:18.302Z,63.70
2023-07-16T22:05:20.682Z,67.23
2023-07-16T22:10:23.066Z,67.04
2023-07-16T22:15:25.429Z,70.96
2023-07-16T22:20:28.405Z,68.22
2023-07-16T22:25:30.697Z,66.95
2023-07-16T22:30:32.986Z,64.69
2023-07-16T22:35:35.184Z,65.27
2023-07-16T22:40:37.532Z,64.82
2023-07-16T22:45:42.331Z,66.73
2023-07-16T22:50:45.940Z,65.23
2023-07-16T22:55:49.447Z,65.58
2023-07-16T23:00:51.815Z,66.59
2023-07-16T23:05:54.231Z,66.56
2023-07-16T23:10:57.263Z,69.51
2023-07-16T23:16:00.359Z,70.86
2023-07-16T23:21:02.731Z,66.78
2023-07-16T23:31:42.699Z,68.64
2023-07-16T23:36:44.866Z,73.00
2023-07-16T23:41:47.046Z,71.40
2023-07-16T23:46:49.313Z,70.03
2023-07-16T23:51:51.693Z,68.27
2023-07-16T23:56:54.157Z,70.83
